Time;durP1;ratioP1;P1;durP2;ratioP2;P2;SDS_P1;SDS_P2;PMS_P1;PMS_P2;Temp;Humidity;BMP_temperature;BMP_pressure;BME280_temperature;BME280_humidity;BME280_pressure;Samples;Min_cycle;Max_cycle;Signal;HPM_P1;HPM_P2
2023/06/15 00:02:11;;;;;;;4.53;3.13;;;;;;;14.74;100.00;102184.06;5046553;28;20201;-70
2023/06/15 00:04:39;;;;;;;5.57;3.27;;;;;;;14.76;100.00;102183.25;5054373;28;20221;-71
2023/06/15 00:07:04;;;;;;;5.10;2.70;;;;;;;14.78;100.00;102179.00;5045599;28;20185;-69
2023/06/15 00:09:30;;;;;;;4.00;2.33;;;;;;;14.80;100.00;102177.34;5046230;28;20761;-69
2023/06/15 00:11:55;;;;;;;4.27;2.93;;;;;;;14.73;100.00;102179.75;5047266;28;20193;-70
2023/06/15 00:14:21;;;;;;;5.40;3.10;;;;;;;14.73;100.00;102190.91;5052181;28;20257;-71
2023/06/15 00:16:47;;;;;;;5.50;2.97;;;;;;;14.66;100.00;102176.13;5045712;28;20354;-70
2023/06/15 00:19:13;;;;;;;4.83;3.20;;;;;;;14.76;100.00;102185.84;5043762;28;20197;-71
2023/06/15 00:21:41;;;;;;;5.40;2.93;;;;;;;14.76;100.00;102177.22;5047209;28;20198;-70
2023/06/15 00:24:09;;;;;;;5.90;3.00;;;;;;;14.78;100.00;102175.56;5040948;28;20628;-70
2023/06/15 00:26:34;;;;;;;7.07;3.50;;;;;;;14.76;100.00;102174.63;5045905;28;20682;-69
2023/06/15 00:29:00;;;;;;;9.40;3.40;;;;;;;14.70;100.00;102185.69;5044712;28;20200;-70
2023/06/15 00:31:25;;;;;;;6.27;3.53;;;;;;;14.66;100.00;102185.56;5052279;28;20292;-70
2023/06/15 00:33:52;;;;;;;4.47;2.93;;;;;;;14.65;100.00;102178.69;5040818;28;20229;-70
2023/06/15 00:36:18;;;;;;;7.10;3.60;;;;;;;14.58;100.00;102175.06;5048805;28;20197;-71
2023/06/15 00:38:44;;;;;;;5.07;2.87;;;;;;;14.57;100.00;102175.03;5046867;28;20185;-69
2023/06/15 00:41:09;;;;;;;6.03;3.40;;;;;;;14.41;100.00;102175.50;5045413;28;20200;-71
2023/06/15 00:43:36;;;;;;;5.00;3.67;;;;;;;14.49;100.00;102163.66;5046190;28;20243;-70
2023/06/15 00:46:05;;;;;;;8.17;3.10;;;;;;;14.46;100.00;102168.75;5041044;28;20220;-71
2023/06/15 00:48:31;;;;;;;5.60;3.53;;;;;;;14.48;100.00;102169.66;5042173;28;20190;-71
2023/06/15 00:50:56;;;;;;;4.97;3.33;;;;;;;14.51;100.00;102168.00;5048327;28;20197;-71
2023/06/15 00:53:22;;;;;;;7.53;3.40;;;;;;;14.48;100.00;102167.06;5046518;28;20236;-70
2023/06/15 00:55:48;;;;;;;5.17;3.00;;;;;;;14.46;100.00;102179.06;5043835;28;20189;-70
2023/06/15 00:58:15;;;;;;;4.47;3.60;;;;;;;14.38;100.00;102176.28;5045604;28;20205;-69
2023/06/15 01:00:40;;;;;;;5.17;3.40;;;;;;;14.39;100.00;102175.47;5031309;28;20281;-71
2023/06/15 01:03:06;;;;;;;5.07;3.47;;;;;;;14.36;100.00;102177.94;5044553;28;20276;-70
2023/06/15 01:05:36;;;;;;;4.37;3.70;;;;;;;14.35;100.00;102180.47;5044782;28;20218;-71
2023/06/15 01:08:04;;;;;;;5.37;3.40;;;;;;;14.33;100.00;102177.88;5046431;28;20217;-70
2023/06/15 01:10:32;;;;;;;5.20;3.23;;;;;;;14.28;100.00;102181.16;5043067;28;20252;-71
2023/06/15 01:13:03;;;;;;;4.70;3.80;;;;;;;14.09;100.00;102189.22;5044423;28;20231;-71
2023/06/15 01:15:31;;;;;;;5.37;3.47;;;;;;;14.12;100.00;102177.28;5044716;28;20193;-71
2023/06/15 01:18:03;;;;;;;7.50;3.33;;;;;;;14.15;100.00;102184.22;5044556;28;20200;-70
2023/06/15 01:20:39;;;;;;;5.40;3.33;;;;;;;14.02;100.00;102188.19;5044251;28;20194;-71
2023/06/15 01:23:25;;;;;;;6.83;3.60;;;;;;;13.98;100.00;102177.75;5046313;28;20259;-71
2023/06/15 01:26:15;;;;;;;4.03;3.33;;;;;;;13.99;100.00;102171.78;5040793;28;20263;-70
2023/06/15 01:28:47;;;;;;;3.23;2.90;;;;;;;13.98;100.00;102168.31;5041237;28;20193;-70
2023/06/15 01:31:13;;;;;;;6.63;3.03;;;;;;;13.94;100.00;102171.63;5043473;28;20194;-71
2023/06/15 01:33:47;;;;;;;7.30;3.30;;;;;;;14.02;100.00;102166.69;5058338;28;20760;-70
2023/06/15 01:36:13;;;;;;;4.40;2.77;;;;;;;14.01;100.00;102168.41;5041917;28;20204;-70
2023/06/15 01:38:39;;;;;;;3.60;3.30;;;;;;;13.99;100.00;102179.50;5043868;28;20197;-70
2023/06/15 01:41:07;;;;;;;5.53;3.33;;;;;;;14.00;100.00;102169.22;5044465;28;20190;-70
2023/06/15 01:43:35;;;;;;;3.90;2.90;;;;;;;14.00;100.00;102168.38;5039168;28;20222;-70
2023/06/15 01:46:02;;;;;;;6.77;3.40;;;;;;;13.97;100.00;102165.69;5058301;28;20220;-69
2023/06/15 01:48:28;;;;;;;8.47;3.07;;;;;;;13.94;100.00;102158.75;5050704;28;20206;-69
2023/06/15 01:50:55;;;;;;;5.63;3.47;;;;;;;13.97;100.00;102145.09;5049344;28;20194;-71
2023/06/15 01:53:20;;;;;;;5.00;3.17;;;;;;;13.94;100.00;102145.00;5047696;28;20307;-70
2023/06/15 01:55:46;;;;;;;5.73;3.27;;;;;;;13.91;100.00;102138.06;5048144;28;20368;-71
2023/06/15 01:58:15;;;;;;;4.73;3.07;;;;;;;13.78;100.00;102141.16;5049031;28;20201;-69
2023/06/15 02:00:42;;;;;;;4.83;3.23;;;;;;;13.74;100.00;102135.88;5048912;28;20185;-70
2023/06/15 02:03:08;;;;;;;4.63;3.20;;;;;;;13.66;100.00;102121.91;5046817;28;20272;-70
2023/06/15 02:05:39;;;;;;;4.43;3.00;;;;;;;13.54;100.00;102116.44;5042862;28;20225;-70
2023/06/15 02:08:08;;;;;;;4.30;3.47;;;;;;;13.43;100.00;102102.41;5049693;28;20281;-70
2023/06/15 02:10:34;;;;;;;6.10;3.37;;;;;;;13.42;100.00;102091.25;5059187;28;20586;-71
2023/06/15 02:13:00;;;;;;;4.53;2.80;;;;;;;13.27;100.00;102071.94;5046602;28;20209;-70
2023/06/15 02:15:27;;;;;;;4.87;3.20;;;;;;;13.26;100.00;102058.19;5048532;28;20190;-70
2023/06/15 02:18:01;;;;;;;3.87;3.13;;;;;;;13.20;100.00;102065.75;5045484;28;20202;-70
2023/06/15 02:20:30;;;;;;;5.60;3.00;;;;;;;13.20;100.00;102068.31;5053488;28;20204;-70
2023/06/15 02:22:59;;;;;;;10.10;3.57;;;;;;;13.19;100.00;102065.69;5041690;28;20243;-71
2023/06/15 02:25:24;;;;;;;4.27;3.07;;;;;;;13.11;100.00;102065.47;5047258;28;20214;-70
2023/06/15 02:27:50;;;;;;;5.93;3.83;;;;;;;12.91;100.00;102064.84;5049174;28;20587;-70
2023/06/15 02:30:16;;;;;;;4.80;3.20;;;;;;;12.98;100.00;102058.22;5043017;28;20204;-70
2023/06/15 02:32:42;;;;;;;4.83;3.20;;;;;;;12.95;100.00;102060.69;5042904;28;20198;-71
2023/06/15 02:35:11;;;;;;;4.70;3.30;;;;;;;12.89;100.00;102069.09;5028125;28;21094;-70
2023/06/15 02:37:37;;;;;;;3.67;3.37;;;;;;;12.75;100.00;102065.25;5045728;28;20213;-71
2023/06/15 02:40:04;;;;;;;5.37;3.30;;;;;;;12.79;100.00;102064.50;5032785;28;20303;-70
2023/06/15 02:42:30;;;;;;;6.27;3.60;;;;;;;12.72;100.00;102072.00;5044856;28;20552;-70
2023/06/15 02:44:56;;;;;;;5.40;3.73;;;;;;;12.71;100.00;102068.53;5044868;28;20278;-70
2023/06/15 02:47:22;;;;;;;6.20;3.60;;;;;;;12.68;100.00;102073.59;5038728;28;20210;-69
2023/06/15 02:49:48;;;;;;;4.90;4.03;;;;;;;12.68;100.00;102070.16;5048110;28;20200;-68
2023/06/15 02:52:13;;;;;;;4.73;3.20;;;;;;;12.58;100.00;102083.56;5046072;28;20292;-69
2023/06/15 02:54:39;;;;;;;6.07;3.60;;;;;;;12.54;100.00;102079.16;5044345;28;20656;-69
2023/06/15 02:57:06;;;;;;;6.87;3.83;;;;;;;12.52;100.00;102080.78;5043569;28;20255;-69
2023/06/15 02:59:36;;;;;;;4.53;3.47;;;;;;;12.49;100.00;102080.69;5058411;28;20202;-70
2023/06/15 03:02:06;;;;;;;4.77;3.23;;;;;;;12.42;100.00;102077.06;5042959;28;20194;-70
2023/06/15 03:04:44;;;;;;;3.87;3.13;;;;;;;12.35;100.00;102075.09;5045067;28;20309;-69
2023/06/15 03:07:16;;;;;;;4.27;3.87;;;;;;;12.40;100.00;102080.41;5052857;28;20610;-69
2023/06/15 03:10:10;;;;;;;5.50;3.40;;;;;;;12.38;100.00;102082.03;5061129;28;20208;-69
2023/06/15 03:12:39;;;;;;;4.40;3.23;;;;;;;12.38;100.00;102082.03;5045708;28;20194;-70
2023/06/15 03:15:08;;;;;;;6.13;3.73;;;;;;;12.33;100.00;102086.16;5043767;28;20210;-68
2023/06/15 03:17:36;;;;;;;4.53;3.70;;;;;;;12.32;100.00;102085.31;5044242;28;20193;-70
2023/06/15 03:20:10;;;;;;;3.70;3.10;;;;;;;12.29;100.00;102085.19;5044186;28;20198;-69
2023/06/15 03:22:37;;;;;;;5.37;3.83;;;;;;;12.29;100.00;102077.50;5045754;28;20288;-70
2023/06/15 03:25:03;;;;;;;5.20;3.50;;;;;;;12.27;100.00;102080.84;5046782;28;20240;-69
2023/06/15 03:27:32;;;;;;;4.37;3.70;;;;;;;12.23;100.00;102079.88;5043538;28;20262;-70
2023/06/15 03:30:01;;;;;;;6.17;3.70;;;;;;;12.27;100.00;102076.59;5047892;28;20197;-70
2023/06/15 03:32:29;;;;;;;5.00;3.67;;;;;;;12.22;100.00;102082.38;5040331;28;20255;-69
2023/06/15 03:34:57;;;;;;;4.17;3.57;;;;;;;12.18;100.00;102084.00;5046346;28;20647;-69
2023/06/15 03:37:24;;;;;;;3.90;3.50;;;;;;;12.20;100.00;102079.75;5046588;28;20198;-69
2023/06/15 03:39:50;;;;;;;6.50;3.83;;;;;;;12.24;100.00;102084.19;5047458;28;20193;-69
2023/06/15 03:42:15;;;;;;;5.53;3.63;;;;;;;12.26;100.00;102079.09;5045532;28;20236;-70
2023/06/15 03:44:41;;;;;;;6.33;4.10;;;;;;;12.23;100.00;102081.56;5044576;28;20355;-69
2023/06/15 03:47:07;;;;;;;8.00;4.10;;;;;;;12.19;100.00;102078.03;5041476;28;20198;-69
2023/06/15 03:49:32;;;;;;;6.83;3.77;;;;;;;12.23;100.00;102077.31;5046982;28;20193;-69
2023/06/15 03:51:58;;;;;;;5.07;3.50;;;;;;;12.27;100.00;102079.16;5045976;28;20198;-69
2023/06/15 03:54:24;;;;;;;4.87;3.53;;;;;;;12.35;100.00;102071.69;5042385;28;20224;-70
2023/06/15 03:56:50;;;;;;;6.27;3.40;;;;;;;12.38;100.00;102076.91;5047279;28;20193;-69
2023/06/15 03:59:15;;;;;;;5.03;3.27;;;;;;;12.40;100.00;102077.84;5030160;28;20284;-69
2023/06/15 04:01:42;;;;;;;8.37;3.70;;;;;;;12.46;100.00;102078.03;5051082;28;20267;-70
2023/06/15 04:04:08;;;;;;;5.10;3.30;;;;;;;12.50;100.00;102075.56;5043081;28;20225;-69
2023/06/15 04:06:35;;;;;;;7.30;3.90;;;;;;;12.53;100.00;102078.25;5044779;28;20197;-69
2023/06/15 04:09:03;;;;;;;7.27;3.80;;;;;;;12.54;100.00;102079.16;5047160;28;20197;-70
2023/06/15 04:11:29;;;;;;;8.07;4.37;;;;;;;12.64;100.00;102071.78;5042927;28;20209;-69
2023/06/15 04:13:55;;;;;;;5.57;4.40;;;;;;;12.76;100.00;102074.69;5046346;28;20589;-69
2023/06/15 04:16:21;;;;;;;6.50;4.67;;;;;;;12.86;100.00;102068.16;5044955;28;20722;-69
2023/06/15 04:18:47;;;;;;;5.33;4.30;;;;;;;12.95;100.00;102069.28;5046368;28;20224;-71
2023/06/15 04:21:12;;;;;;;5.93;4.63;;;;;;;13.05;100.00;102067.88;5056593;28;20285;-69
2023/06/15 04:23:38;;;;;;;7.47;3.97;;;;;;;13.13;100.00;102071.56;5046292;28;20303;-69
2023/06/15 04:26:04;;;;;;;5.93;4.27;;;;;;;13.23;100.00;102075.25;5044629;28;20616;-69
2023/06/15 04:28:30;;;;;;;7.10;4.20;;;;;;;13.31;100.00;102076.34;5057888;28;20571;-69
2023/06/15 04:31:08;;;;;;;4.90;4.40;;;;;;;13.38;100.00;102073.09;5041597;28;20221;-69
2023/06/15 04:33:34;;;;;;;6.07;4.07;;;;;;;13.45;100.00;102080.16;5045186;28;20283;-70
2023/06/15 04:36:00;;;;;;;8.77;4.93;;;;;;;13.49;100.00;102077.72;5045185;28;20634;-68
2023/06/15 04:38:28;;;;;;;8.27;4.23;;;;;;;13.58;100.00;102077.09;5046278;28;20270;-69
2023/06/15 04:40:56;;;;;;;8.00;4.33;;;;;;;13.66;100.00;102075.59;5046828;28;20593;-69
2023/06/15 04:43:22;;;;;;;6.77;4.57;;;;;;;13.77;100.00;102069.03;5043829;28;20309;-69
2023/06/15 04:45:48;;;;;;;5.97;4.50;;;;;;;13.87;100.00;102066.75;5047304;28;20396;-69
2023/06/15 04:48:19;;;;;;;7.30;4.87;;;;;;;13.97;100.00;102075.56;5043012;28;20785;-69
2023/06/15 04:50:48;;;;;;;6.03;4.30;;;;;;;14.08;100.00;102075.00;5046247;28;20189;-69
2023/06/15 04:53:18;;;;;;;8.33;4.57;;;;;;;14.21;100.00;102073.63;5035593;28;20726;-69
2023/06/15 04:55:44;;;;;;;4.30;3.73;;;;;;;14.33;100.00;102077.38;5054840;28;20273;-69
2023/06/15 04:58:11;;;;;;;10.07;4.43;;;;;;;14.44;100.00;102075.03;5043288;28;20348;-69
2023/06/15 05:00:36;;;;;;;10.53;4.40;;;;;;;14.55;100.00;102068.44;5042232;28;20281;-70
2023/06/15 05:03:03;;;;;;;5.70;3.87;;;;;;;14.66;100.00;102075.59;5046562;28;20221;-70
2023/06/15 05:05:28;;;;;;;7.80;4.77;;;;;;;14.77;100.00;102073.22;5045790;28;20267;-69
2023/06/15 05:07:54;;;;;;;5.20;3.87;;;;;;;14.90;100.00;102077.81;5046478;28;20296;-69
2023/06/15 05:10:19;;;;;;;7.93;4.70;;;;;;;15.00;100.00;102078.06;5040902;28;20858;-71
2023/06/15 05:12:46;;;;;;;8.37;4.13;;;;;;;15.08;100.00;102073.94;5046156;28;20213;-71
2023/06/15 05:15:13;;;;;;;5.73;3.83;;;;;;;15.19;100.00;102064.69;5046045;28;20613;-71
2023/06/15 05:17:39;;;;;;;5.10;4.00;;;;;;;15.34;100.00;102057.28;5046591;28;20257;-71
2023/06/15 05:20:06;;;;;;;8.03;4.53;;;;;;;15.47;100.00;102064.41;5060723;28;20566;-70
2023/06/15 05:22:31;;;;;;;6.47;4.77;;;;;;;15.60;100.00;102057.78;5045643;28;20205;-70
2023/06/15 05:24:58;;;;;;;6.43;4.10;;;;;;;15.77;100.00;102051.19;5048100;28;20221;-72
2023/06/15 05:27:24;;;;;;;7.53;4.50;;;;;;;15.96;100.00;102063.59;5049389;28;20201;-70
2023/06/15 05:29:51;;;;;;;6.07;4.00;;;;;;;16.10;100.00;102056.94;5049779;28;20685;-70
2023/06/15 05:32:16;;;;;;;7.13;4.07;;;;;;;16.26;100.00;102058.94;5050036;28;20186;-70
2023/06/15 05:34:42;;;;;;;5.27;3.77;;;;;;;16.37;100.00;102059.97;5045017;28;20684;-71
2023/06/15 05:37:07;;;;;;;6.13;4.17;;;;;;;16.45;100.00;102048.94;5049668;28;20719;-71
2023/06/15 05:39:37;;;;;;;5.00;3.90;;;;;;;16.59;100.00;102051.72;5048732;28;20197;-70
2023/06/15 05:42:02;;;;;;;3.63;3.33;;;;;;;16.66;100.00;102038.91;5048796;28;20185;-70
2023/06/15 05:44:28;;;;;;;3.97;3.53;;;;;;;16.79;100.00;102042.50;5049147;28;20214;-70
2023/06/15 05:46:56;;;;;;;5.33;3.60;;;;;;;16.98;100.00;102050.53;5040865;28;20200;-71
2023/06/15 05:49:21;;;;;;;7.07;3.77;;;;;;;17.08;100.00;102036.00;5049421;28;20190;-71
2023/06/15 05:51:47;;;;;;;5.73;3.77;;;;;;;17.20;100.00;102018.88;5048528;28;20225;-70
2023/06/15 05:54:14;;;;;;;7.13;3.90;;;;;;;17.36;100.00;101999.22;5048014;28;20209;-70
2023/06/15 05:56:40;;;;;;;6.10;3.50;;;;;;;17.40;100.00;101982.91;5062801;28;20772;-70
2023/06/15 05:59:06;;;;;;;9.67;3.70;;;;;;;17.45;100.00;101999.34;5045753;28;20787;-70
2023/06/15 06:01:31;;;;;;;5.37;3.80;;;;;;;17.64;100.00;102017.66;5059263;28;20225;-71
2023/06/15 06:03:57;;;;;;;4.73;3.77;;;;;;;17.81;100.00;101971.16;5049259;28;20213;-71
2023/06/15 06:06:24;;;;;;;5.43;3.70;;;;;;;17.93;100.00;101985.09;5047358;28;20209;-70
2023/06/15 06:08:50;;;;;;;5.97;4.17;;;;;;;18.04;100.00;101975.66;5040272;28;20323;-71
2023/06/15 06:11:15;;;;;;;5.73;3.70;;;;;;;18.15;100.00;101993.91;5049217;28;20216;-70
2023/06/15 06:13:51;;;;;;;9.80;3.47;;;;;;;18.26;100.00;101966.31;5050975;28;20259;-70
2023/06/15 06:16:16;;;;;;;5.23;3.50;;;;;;;18.31;100.00;101929.16;5042571;28;20183;-70
2023/06/15 06:18:41;;;;;;;5.03;3.67;;;;;;;18.33;100.00;101906.72;5048847;28;20209;-70
2023/06/15 06:21:07;;;;;;;5.07;3.67;;;;;;;18.59;100.00;101925.88;5047402;28;20190;-70
2023/06/15 06:23:34;;;;;;;8.17;4.03;;;;;;;18.71;100.00;101923.34;5048742;28;20224;-72
2023/06/15 06:26:00;;;;;;;7.97;3.90;;;;;;;18.86;100.00;101899.13;5048016;28;20213;-71
2023/06/15 06:28:26;;;;;;;5.83;3.60;;;;;;;18.96;100.00;101881.00;5046686;28;20206;-71
2023/06/15 06:30:51;;;;;;;5.93;3.63;;;;;;;19.00;100.00;101846.38;5045691;28;20717;-71
2023/06/15 06:33:17;;;;;;;6.67;3.63;;;;;;;19.13;100.00;101879.31;5049287;28;20255;-72
2023/06/15 06:35:42;;;;;;;7.77;3.97;;;;;;;19.23;100.00;101855.09;5048808;28;20615;-70
2023/06/15 06:38:08;;;;;;;7.80;3.63;;;;;;;19.27;100.00;101861.16;5050364;28;20773;-71
2023/06/15 06:40:33;;;;;;;5.80;3.37;;;;;;;19.05;100.00;101896.59;5050969;28;20216;-71
2023/06/15 06:42:59;;;;;;;6.87;3.47;;;;;;;19.46;100.00;101868.97;5048147;28;20280;-71
2023/06/15 06:45:24;;;;;;;5.90;3.53;;;;;;;19.64;100.00;101831.69;5050285;28;20236;-71
2023/06/15 06:47:49;;;;;;;7.30;3.37;;;;;;;19.92;100.00;101809.94;5049892;28;20198;-71
2023/06/15 06:50:15;;;;;;;7.50;3.33;;;;;;;20.12;100.00;101783.03;5049593;28;20186;-69
2023/06/15 06:52:42;;;;;;;6.27;3.23;;;;;;;20.40;100.00;101782.00;5049712;28;20674;-68
2023/06/15 06:55:08;;;;;;;5.70;3.33;;;;;;;20.59;100.00;101754.16;5048055;28;20744;-69
2023/06/15 06:57:35;;;;;;;4.73;3.10;;;;;;;20.75;97.44;101745.34;5046576;28;20205;-69
2023/06/15 07:00:01;;;;;;;6.13;3.00;;;;;;;20.85;97.13;101742.66;5043584;28;20277;-69
2023/06/15 07:02:26;;;;;;;7.20;3.40;;;;;;;21.15;93.87;101737.19;5049286;28;20384;-70
2023/06/15 07:04:51;;;;;;;5.17;3.37;;;;;;;21.16;88.90;101720.72;5047081;28;20683;-70
2023/06/15 07:07:17;;;;;;;5.57;2.97;;;;;;;21.32;84.51;101710.97;5047799;28;20199;-70
2023/06/15 07:09:42;;;;;;;6.60;2.90;;;;;;;21.31;87.05;101743.13;5045808;28;20251;-70
2023/06/15 07:12:08;;;;;;;5.77;3.20;;;;;;;21.15;87.40;101747.63;5042636;28;20255;-69
2023/06/15 07:14:34;;;;;;;7.73;3.47;;;;;;;21.34;84.86;101751.78;5045635;28;20210;-69
2023/06/15 07:16:59;;;;;;;3.73;3.00;;;;;;;21.70;80.06;101742.75;5046307;28;20193;-71
2023/06/15 07:19:25;;;;;;;7.40;3.17;;;;;;;22.02;72.89;101741.44;5048839;28;20662;-68
2023/06/15 07:21:51;;;;;;;3.30;2.90;;;;;;;22.20;71.90;101767.31;5047246;28;20201;-68
2023/06/15 07:24:17;;;;;;;9.60;3.30;;;;;;;22.63;72.87;101785.88;5043452;28;20269;-68
2023/06/15 07:26:42;;;;;;;3.87;2.87;;;;;;;22.64;66.99;101786.75;5039564;28;20202;-68
2023/06/15 07:29:07;;;;;;;5.50;2.87;;;;;;;22.84;69.55;101810.81;5047343;28;20197;-69
2023/06/15 07:31:33;;;;;;;3.57;2.70;;;;;;;23.08;68.73;101813.94;5047043;28;20197;-70
2023/06/15 07:33:59;;;;;;;5.07;3.00;;;;;;;23.07;64.52;101808.72;5045114;28;20221;-71
2023/06/15 07:36:24;;;;;;;8.03;2.97;;;;;;;23.09;63.14;101794.72;5046235;28;20221;-69
2023/06/15 07:38:52;;;;;;;4.83;3.33;;;;;;;23.20;61.54;101811.13;5046570;28;20202;-70
2023/06/15 07:41:17;;;;;;;5.33;2.90;;;;;;;23.52;60.78;101815.81;5046178;28;20209;-69
2023/06/15 07:43:43;;;;;;;8.03;3.10;;;;;;;23.71;58.77;101810.19;5047929;28;20224;-69
2023/06/15 07:46:08;;;;;;;6.17;3.20;;;;;;;23.98;57.19;101803.63;5047537;28;20228;-69
2023/06/15 07:48:34;;;;;;;5.70;3.13;;;;;;;23.94;57.13;101817.66;5047176;28;20197;-69
2023/06/15 07:50:59;;;;;;;6.47;2.90;;;;;;;23.56;56.26;101820.06;5044561;28;20226;-69
2023/06/15 07:53:25;;;;;;;5.93;3.30;;;;;;;23.75;54.74;101795.31;5046490;28;20752;-69
2023/06/15 07:55:50;;;;;;;5.83;2.67;;;;;;;23.76;53.12;101803.13;5045815;28;20194;-69
2023/06/15 07:58:16;;;;;;;6.43;2.90;;;;;;;23.54;52.46;101804.44;5045766;28;20248;-69
2023/06/15 08:00:41;;;;;;;3.43;2.60;;;;;;;23.66;49.60;101805.97;5046178;28;20238;-69
2023/06/15 08:03:06;;;;;;;5.40;2.70;;;;;;;23.76;48.92;101815.34;5045718;28;20683;-69
2023/06/15 08:05:32;;;;;;;4.97;3.13;;;;;;;23.82;47.73;101868.44;5046221;28;20220;-69
2023/06/15 08:07:57;;;;;;;3.97;2.87;;;;;;;24.25;48.14;101865.88;5045034;28;20208;-69
2023/06/15 08:10:23;;;;;;;5.07;2.90;;;;;;;24.40;47.52;101863.81;5046180;28;20213;-69
2023/06/15 08:12:49;;;;;;;8.48;3.10;;;;;;;24.53;46.83;101862.66;5049044;28;20204;-69
2023/06/15 08:15:14;;;;;;;5.33;2.90;;;;;;;24.44;45.73;101847.13;5045922;28;20201;-69
2023/06/15 08:17:39;;;;;;;3.70;2.55;;;;;;;24.39;46.93;101877.81;5039778;28;20205;-69
2023/06/15 08:20:09;;;;;;;6.40;2.80;;;;;;;24.49;45.71;101865.38;5046342;28;20207;-69
2023/06/15 08:22:35;;;;;;;7.65;3.03;;;;;;;25.17;45.97;101859.44;5046243;28;20193;-69
2023/06/15 08:25:00;;;;;;;5.75;3.15;;;;;;;25.53;43.91;101863.81;5042871;28;20299;-70
2023/06/15 08:27:25;;;;;;;4.57;2.97;;;;;;;25.74;43.02;101853.63;5046141;28;20193;-70
2023/06/15 08:29:51;;;;;;;4.38;2.65;;;;;;;25.18;43.05;101864.66;5046287;28;20251;-69
2023/06/15 08:32:16;;;;;;;5.13;2.80;;;;;;;25.28;43.02;101853.09;5047694;28;20611;-69
2023/06/15 08:34:43;;;;;;;8.82;2.95;;;;;;;25.36;42.41;101853.75;5044642;28;20236;-69
2023/06/15 08:37:11;;;;;;;6.78;2.83;;;;;;;25.24;41.77;101854.00;5047604;28;20197;-69
2023/06/15 08:39:37;;;;;;;4.88;2.33;;;;;;;25.34;41.29;101846.81;5046862;28;20190;-69
2023/06/15 08:42:03;;;;;;;5.32;2.90;;;;;;;25.46;39.98;101852.63;5045687;28;20300;-69
2023/06/15 08:44:36;;;;;;;5.57;2.95;;;;;;;25.25;39.03;101855.75;5044236;28;20296;-69
2023/06/15 08:47:03;;;;;;;3.67;3.00;;;;;;;25.34;40.62;101886.19;5046883;28;20252;-69
2023/06/15 08:49:32;;;;;;;6.13;2.53;;;;;;;25.40;39.49;101868.53;5046151;28;20621;-69
2023/06/15 08:52:02;;;;;;;5.40;2.97;;;;;;;25.40;38.86;101854.53;5043954;28;20201;-69
2023/06/15 08:54:31;;;;;;;6.07;2.95;;;;;;;25.21;39.43;101876.84;5045456;28;20585;-69
2023/06/15 08:56:56;;;;;;;5.53;2.70;;;;;;;25.22;39.32;101871.56;5046101;28;20193;-69
2023/06/15 08:59:22;;;;;;;5.18;2.90;;;;;;;25.55;38.82;101862.88;5046220;28;20275;-69
2023/06/15 09:01:48;;;;;;;6.43;2.72;;;;;;;25.52;39.48;101883.97;5050426;28;20895;-69
2023/06/15 09:04:15;;;;;;;6.95;3.28;;;;;;;25.55;39.63;101886.50;5051352;28;20220;-70
2023/06/15 09:06:41;;;;;;;8.48;3.55;;;;;;;25.71;40.94;101886.97;5048313;28;20209;-70
2023/06/15 09:09:09;;;;;;;5.05;2.80;;;;;;;25.78;40.14;101883.31;5050133;28;20225;-69
2023/06/15 09:11:40;;;;;;;6.40;3.30;;;;;;;25.73;39.56;101865.03;5047925;28;20855;-69
2023/06/15 09:14:09;;;;;;;5.80;2.85;;;;;;;25.48;37.61;101853.47;5045251;28;20267;-69
2023/06/15 09:16:35;;;;;;;4.20;2.80;;;;;;;25.33;38.46;101869.56;5048985;28;20605;-72
2023/06/15 09:19:01;;;;;;;3.90;2.80;;;;;;;25.28;38.16;101871.44;5049437;28;20193;-71
2023/06/15 09:21:28;;;;;;;4.60;3.03;;;;;;;25.33;38.71;101889.72;5047536;28;20689;-69
2023/06/15 09:24:03;;;;;;;5.03;2.83;;;;;;;25.32;38.45;101874.88;5046675;28;20213;-69
2023/06/15 09:26:28;;;;;;;8.55;2.95;;;;;;;25.28;37.98;101854.88;5050963;28;20910;-69
2023/06/15 09:28:56;;;;;;;4.57;2.97;;;;;;;25.01;38.49;101872.06;5051282;28;20196;-71
2023/06/15 09:31:29;;;;;;;4.57;2.70;;;;;;;25.13;38.89;101881.41;5049873;28;20682;-69
2023/06/15 09:34:11;;;;;;;5.57;2.88;;;;;;;24.99;38.48;101867.75;5048536;28;20225;-71
2023/06/15 09:36:39;;;;;;;5.17;2.97;;;;;;;24.93;40.36;101900.25;5050002;28;20187;-69
2023/06/15 09:39:08;;;;;;;5.75;2.83;;;;;;;24.76;39.71;101894.50;5050138;28;20186;-69
2023/06/15 09:41:34;;;;;;;8.07;2.90;;;;;;;24.75;38.46;101865.69;5049731;28;20207;-69
2023/06/15 09:44:06;;;;;;;5.57;3.00;;;;;;;24.81;39.79;101890.00;5037588;28;20214;-69
2023/06/15 09:46:32;;;;;;;4.97;2.80;;;;;;;24.75;40.34;101907.63;5048963;28;20349;-69
2023/06/15 09:48:58;;;;;;;4.55;2.85;;;;;;;24.97;39.34;101880.94;5050549;28;20192;-71
2023/06/15 09:51:28;;;;;;;4.95;3.28;;;;;;;25.14;39.01;101870.88;5048249;28;20198;-69
2023/06/15 09:53:54;;;;;;;11.35;3.03;;;;;;;25.33;38.32;101845.13;5050543;28;20253;-69
2023/06/15 09:56:21;;;;;;;5.30;2.83;;;;;;;25.44;38.81;101851.81;5050010;28;20296;-71
2023/06/15 09:58:48;;;;;;;5.40;3.05;;;;;;;25.54;38.60;101850.66;5050343;28;20209;-69
2023/06/15 10:01:18;;;;;;;6.22;3.08;;;;;;;26.19;39.90;101876.03;5048104;28;20206;-71
2023/06/15 10:03:49;;;;;;;6.13;2.95;;;;;;;26.55;37.88;101843.44;5048881;28;20244;-69
2023/06/15 10:06:16;;;;;;;6.82;3.08;;;;;;;26.32;36.88;101843.25;5045551;28;20218;-69
2023/06/15 10:08:44;;;;;;;3.92;2.70;;;;;;;26.40;36.91;101846.53;5047115;28;20227;-71
2023/06/15 10:11:12;;;;;;;3.50;2.65;;;;;;;26.69;38.15;101858.81;5048663;28;20204;-69
2023/06/15 10:13:52;;;;;;;3.72;2.92;;;;;;;26.64;35.07;101839.69;5048917;28;20651;-69
2023/06/15 10:16:20;;;;;;;4.38;3.30;;;;;;;26.97;34.82;101847.41;5046557;28;20193;-71
2023/06/15 10:18:49;;;;;;;6.57;2.95;;;;;;;26.73;34.38;101847.28;5048908;28;20768;-71
2023/06/15 10:21:18;;;;;;;4.63;2.83;;;;;;;26.70;36.01;101889.47;5046387;28;20189;-71
2023/06/15 10:23:49;;;;;;;8.18;2.60;;;;;;;26.57;35.90;101885.50;5044974;28;20221;-71
2023/06/15 10:26:14;;;;;;;11.82;3.10;;;;;;;26.14;36.54;101903.31;5043172;28;20225;-71
2023/06/15 10:28:45;;;;;;;7.35;2.85;;;;;;;25.67;37.78;101928.19;5047823;28;20194;-71
2023/06/15 10:31:22;;;;;;;8.18;2.60;;;;;;;25.39;38.81;101944.66;5048460;28;20186;-71
2023/06/15 10:34:04;;;;;;;9.32;3.58;;;;;;;25.46;39.35;101962.81;5043723;28;20787;-71
2023/06/15 10:36:36;;;;;;;8.05;2.75;;;;;;;25.21;39.60;101963.41;5047077;28;20204;-71
2023/06/15 10:39:24;;;;;;;3.10;2.50;;;;;;;25.13;40.21;101979.31;5048895;28;20194;-71
2023/06/15 10:41:57;;;;;;;7.53;3.20;;;;;;;25.14;40.82;101985.44;5044354;28;20206;-71
2023/06/15 10:44:31;;;;;;;8.13;3.23;;;;;;;25.17;40.78;101975.72;5049356;28;20214;-71
2023/06/15 10:47:08;;;;;;;5.25;2.70;;;;;;;25.31;40.00;101962.31;5049592;28;20262;-71
2023/06/15 10:49:33;;;;;;;5.07;3.03;;;;;;;25.38;39.50;101946.44;5048519;28;20232;-69
2023/06/15 10:52:00;;;;;;;5.80;3.28;;;;;;;25.46;39.58;101935.75;5045060;28;20229;-69
2023/06/15 10:54:28;;;;;;;6.93;3.53;;;;;;;25.53;39.55;101926.81;5047726;28;20217;-70
2023/06/15 10:56:55;;;;;;;9.73;3.17;;;;;;;25.66;37.82;101894.09;5049458;28;20284;-70
2023/06/15 10:59:36;;;;;;;3.92;2.70;;;;;;;25.66;37.21;101873.09;5049420;28;20194;-70
2023/06/15 11:02:02;;;;;;;5.22;2.92;;;;;;;25.83;36.71;101863.88;5048008;28;20201;-70
2023/06/15 11:04:30;;;;;;;3.30;2.65;;;;;;;25.85;36.15;101851.59;5048144;28;20255;-70
2023/06/15 11:06:57;;;;;;;4.22;2.67;;;;;;;25.99;36.12;101843.34;5049254;28;20210;-70
2023/06/15 11:09:28;;;;;;;5.90;3.00;;;;;;;26.46;35.82;101838.44;5047621;28;20653;-70
2023/06/15 11:11:54;;;;;;;9.57;2.80;;;;;;;26.93;35.81;101835.25;5045837;28;20249;-70
2023/06/15 11:14:19;;;;;;;7.25;3.13;;;;;;;26.97;36.63;101844.75;5048339;28;20252;-70
2023/06/15 11:16:45;;;;;;;4.47;2.95;;;;;;;26.87;35.67;101817.03;5061159;28;20228;-70
2023/06/15 11:19:13;;;;;;;4.40;2.53;;;;;;;27.07;36.22;101825.13;5066228;28;20197;-69
2023/06/15 11:21:50;;;;;;;2.95;2.53;;;;;;;27.47;36.32;101824.69;5066276;28;20619;-70